Aguanga, California
Current Conditions -  °F | °C
As of 1:15 PM on Tuesday 27 Jan 2015 (Local Time) from KF70 Reporting Station
Clear Clear  
Wind Chill: 68°   Ceiling: Unl
Heat Index: 68°   Visibility: 10mi
Dew Point: 45°   Wind: 5mph
Humidity: 43%   Direction: 210°SSW
Pressure: 30.15"   Gusts: NA
Location:  33.44°N, 116.87°W
Report Text: KF70 272115Z AUTO 21004KT 10SM CLR 20/07 A3015 RMK AO1
Loading
Personal Weather Stations






























Interactive Weather Map New forecast layout! Learn more

10-Day Weather Forecast

Advertisements
Track Severe Weather on mobile